Latest Weather Observations for Perth Airport

IDW60901

Issued at 10:21 pm WST Tuesday 28 January 2020 (issued every 10 minutes, with the page automatically refreshed every 10 minutes)

About weather observations | Map of Perth area stations | Latest observations for Perth area | Other Formats
Station Details ID: 009021 Name: PERTH AIRPORT Lat: -31.93 Lon: 115.98 Height: 15.4 m
Data from the previous 72 hours. | See also: Recent months at Perth Airport
Date/Time
WST
Temp
°C
App
Temp
°C
Dew
Point
°C
Rel
Hum
%
Delta-T
°C
Wind Press
QNH
hPa
Press
MSL
hPa
Rain since
9am
mm
Dir  Spd
km/h
Gust
km/h
Spd
kts
Gust
kts
28/10:00pm 21.5 20.6 17.7 79 2.4 SSW 19 26 10 14 1009.4 1009.3 0.0
28/09:30pm 21.8 20.7 17.8 78 2.5 SW 20 30 11 16 1009.3 1009.2 0.0
28/09:00pm 22.3 19.7 17.9 76 2.7 SW 28 35 15 19 1009.1 1009.0 0.0
28/08:30pm 22.8 20.8 17.3 71 3.4 SW 24 30 13 16 1009.0 1008.9 0.0
28/08:00pm 23.4 22.1 16.7 66 4.1 SW 19 26 10 14 1008.9 1008.8 0.0
28/07:30pm 24.0 21.6 16.5 63 4.6 WSW 24 30 13 16 1008.8 1008.7 0.0
28/07:00pm 25.3 21.9 15.9 56 5.7 WSW 28 33 15 18 1008.6 1008.5 0.0
28/06:30pm 27.0 23.6 14.7 47 7.4 WSW 26 33 14 18 1008.4 1008.3 0.0
28/06:00pm 28.5 24.7 14.7 43 8.4 WSW 28 33 15 18 1008.0 1007.9 0.0
28/05:30pm 29.5 26.4 14.5 40 9.1 WSW 24 33 13 18 1007.7 1007.6 0.0
28/05:00pm 29.9 26.4 14.4 38 9.4 WSW 26 35 14 19 1007.5 1007.4 0.0
28/04:30pm 30.8 27.0 14.8 37 9.8 WSW 28 37 15 20 1007.3 1007.2 0.0
28/04:00pm 32.4 27.8 14.5 33 11.0 WSW 32 37 17 20 1007.4 1007.3 0.0
28/03:30pm 33.2 29.1 13.8 31 11.8 WSW 28 35 15 19 1007.3 1007.2 0.0
28/03:00pm 34.1 30.1 14.1 30 12.3 WSW 28 37 15 20 1007.5 1007.4 0.0
28/02:30pm 34.1 30.5 14.1 30 12.3 WSW 26 35 14 19 1007.6 1007.5 0.0
28/02:00pm 35.7 31.8 13.2 26 13.7 WSW 26 35 14 19 1007.6 1007.5 0.0
28/01:30pm 34.6 31.0 12.9 27 13.1 WSW 24 33 13 18 1007.8 1007.7 0.0
28/01:00pm 35.2 31.3 13.4 27 13.3 WSW 26 33 14 18 1008.1 1008.0 0.0
28/12:30pm 33.6 30.1 15.6 34 11.3 W 28 37 15 20 1008.2 1008.1 0.0
28/12:00pm 34.7 32.3 16.5 33 11.6 W 24 32 13 17 1008.2 1008.1 0.0
28/11:30am 35.0 32.8 14.8 29 12.5 W 20 30 11 16 1008.4 1008.3 0.0
28/11:00am 35.0 33.2 13.2 27 13.3 WSW 15 22 8 12 1008.6 1008.5 0.0
28/10:30am 33.8 32.5 13.8 30 12.2 SW 13 24 7 13 1008.9 1008.8 0.0
28/10:00am 32.8 31.8 13.4 30 11.7 WSW 11 17 6 9 1009.2 1009.1 0.0
28/09:30am 32.0 31.3 14.2 34 10.8 S 11 15 6 8 1009.3 1009.2 0.0
28/09:00am 30.6 30.8 14.3 37 9.9 SSW 6 9 3 5 1009.5 1009.4 0.0
28/08:30am 29.5 30.0 14.1 39 9.3 S 4 9 2 5 1009.6 1009.5 0.0
28/08:00am 28.6 29.0 14.8 43 8.4 ESE 6 9 3 5 1009.6 1009.5 0.0
28/07:30am 27.3 27.5 14.3 45 7.8 E 6 9 3 5 1009.7 1009.6 0.0
28/07:00am 26.1 26.5 15.2 51 6.6 NE 7 11 4 6 1009.5 1009.4 0.0
28/06:30am 22.7 23.5 14.8 61 4.7 NNE 4 9 2 5 1009.4 1009.3 0.0
28/06:00am 21.4 22.5 13.6 61 4.5 CALM 0 6 0 3 1009.2 1009.1 0.0
28/05:30am 21.5 21.4 13.2 59 4.8 NE 6 9 3 5 1008.8 1008.7 0.0
28/05:00am 22.1 22.6 12.9 56 5.3 NNE 2 9 1 5 1008.7 1008.6 0.0
28/04:30am 24.0 23.2 12.9 50 6.4 NE 9 11 5 6 1008.3 1008.2 0.0
28/04:00am 26.1 25.7 12.9 44 7.7 ESE 7 13 4 7 1008.2 1008.1 0.0
28/03:30am 25.4 24.6 12.9 45 7.3 ENE 9 17 5 9 1008.1 1008.0 0.0
28/03:00am 26.8 25.7 13.2 43 8.0 ESE 11 17 6 9 1008.2 1008.1 0.0
28/02:30am 23.4 24.3 14.1 56 5.5 W 2 9 1 5 1008.3 1008.2 0.0
28/02:00am 21.2 21.4 14.1 64 4.1 WNW 6 7 3 4 1008.6 1008.5 0.0
28/01:30am 21.1 21.2 13.8 63 4.2 WNW 6 9 3 5 1008.7 1008.6 0.0
28/01:00am 22.2 22.0 14.8 63 4.4 SW 9 13 5 7 1008.7 1008.6 0.0
28/12:30am 21.4 20.8 13.6 61 4.5 SW 9 11 5 6 1009.0 1008.9 0.0
28/12:00am 22.1 21.6 13.7 59 4.9 SW 9 11 5 6 1009.2 1009.1 0.0
 
Date/Time
WST
Temp
°C
App
Temp
°C
Dew
Point
°C
Rel
Hum
%
Delta-T
°C
Wind Press
QNH
hPa
Press
MSL
hPa
Rain since
9am
mm
Dir  Spd
km/h
Gust
km/h
Spd
kts
Gust
kts
27/11:30pm 23.6 23.0 14.6 57 5.3 SW 11 15 6 8 1009.5 1009.4 0.0
27/11:00pm 24.2 23.7 13.7 52 6.2 SSW 9 11 5 6 1009.7 1009.6 0.0
27/10:30pm 27.8 26.4 14.4 43 8.1 SSW 15 17 8 9 1010.1 1010.0 0.0
27/10:00pm 28.4 26.2 14.3 42 8.5 SSW 19 20 10 11 1010.5 1010.4 0.0
27/09:30pm 29.3 26.9 14.3 40 9.1 SSW 20 26 11 14 1010.6 1010.5 0.0
27/09:00pm 30.3 28.2 13.6 36 10.0 SSW 17 22 9 12 1010.4 1010.3 0.0
27/08:30pm 30.6 29.1 13.0 34 10.5 SW 13 19 7 10 1010.3 1010.2 0.0
27/08:00pm 32.0 29.6 12.8 31 11.5 SW 17 19 9 10 1009.9 1009.8 0.0
27/07:30pm 32.9 30.1 11.4 27 12.6 SW 17 22 9 12 1009.7 1009.6 0.0
27/07:00pm 34.2 31.0 11.4 25 13.4 SW 19 26 10 14 1009.5 1009.4 0.0
27/06:30pm 35.7 31.4 9.3 20 15.2 SSW 22 30 12 16 1009.2 1009.1 0.0
27/06:00pm 36.7 31.8 8.5 18 16.1 SW 24 30 13 16 1009.0 1008.9 0.0
27/05:30pm 37.1 31.5 8.8 18 16.2 SW 28 33 15 18 1009.0 1008.9 0.0
27/05:00pm 38.4 33.5 9.9 18 16.7 SW 26 33 14 18 1008.8 1008.7 0.0
27/04:30pm 39.3 34.6 7.9 15 17.9 WSW 22 32 12 17 1008.7 1008.6 0.0
27/04:00pm 38.9 34.5 10.3 18 16.9 WSW 24 32 13 17 1008.9 1008.8 0.0
27/03:30pm 39.7 35.4 10.9 18 17.2 WSW 24 32 13 17 1008.8 1008.7 0.0
27/03:00pm 39.6 34.6 8.1 15 18.1 WSW 24 30 13 16 1009.1 1009.0 0.0
27/02:30pm 40.0 37.1 12.8 20 16.7 W 20 28 11 15 1009.4 1009.3 0.0
27/02:00pm 38.8 35.2 13.2 21 15.8 W 24 30 13 16 1009.6 1009.5 0.0
27/01:30pm 38.6 34.9 13.8 23 15.4 WSW 26 32 14 17 1009.9 1009.8 0.0
27/01:00pm 39.4 36.5 12.3 20 16.5 W 19 30 10 16 1010.0 1009.9 0.0
27/12:30pm 40.0 37.6 8.5 15 18.2 SW 11 19 6 10 1010.3 1010.2 0.0
27/12:00pm 38.8 37.0 11.0 19 16.6 ENE 11 15 6 8 1010.6 1010.5 0.0
27/11:30am 37.8 35.7 11.0 20 15.9 E 13 20 7 11 1011.0 1010.9 0.0
27/11:00am 37.0 34.3 11.8 22 15.1 ESE 17 28 9 15 1011.2 1011.1 0.0
27/10:30am 35.9 33.1 11.5 23 14.5 ESE 17 30 9 16 1011.6 1011.5 0.0
27/10:00am 34.4 30.5 12.1 26 13.3 E 24 33 13 18 1011.8 1011.7 0.0
27/09:30am 33.4 29.8 11.9 27 12.7 ENE 22 32 12 17 1012.1 1012.0 0.0
27/09:00am 31.1 28.8 12.9 32 10.8 E 17 28 9 15 1012.3 1012.2 0.0
27/08:30am 28.6 26.4 13.3 39 9.1 ENE 17 30 9 16 1012.7 1012.6 0.0
27/08:00am 26.9 24.4 14.0 45 7.7 ENE 20 32 11 17 1012.5 1012.4 0.0
27/07:30am 25.4 22.9 13.6 48 6.9 E 19 32 10 17 1012.6 1012.5 0.0
27/07:00am 24.2 21.9 13.1 50 6.4 ENE 17 26 9 14 1012.4 1012.3 0.0
27/06:30am 23.5 21.5 12.8 51 6.1 E 15 22 8 12 1012.3 1012.2 0.0
27/06:00am 23.2 21.4 12.2 50 6.3 ENE 13 19 7 10 1011.9 1011.8 0.0
27/05:30am 23.7 21.9 12.0 48 6.6 E 13 20 7 11 1011.4 1011.3 0.0
27/05:00am 24.0 22.2 12.0 47 6.8 E 13 32 7 17 1011.2 1011.1 0.0
27/04:30am 24.5 20.1 12.8 48 6.8 E 28 37 15 20 1010.6 1010.5 0.0
27/04:01am 25.1 20.0 13.0 47 7.0 E 32 50 17 27 1010.4 1010.3 0.0
27/04:00am 25.1 19.8 13.0 47 7.0 E 33 50 18 27 1010.4 1010.3 0.0
27/03:31am 25.8 20.9 13.6 47 7.2 E 32 50 17 27 1010.2 1010.1 0.0
27/03:30am 25.9 20.9 13.4 46 7.3 E 32 44 17 24 1010.2 1010.1 0.0
27/03:04am 26.4 19.9 13.9 46 7.4 E 41 59 22 32 1010.0 1009.9 0.0
27/03:00am 26.4 20.3 14.2 47 7.3 E 39 52 21 28 1010.0 1009.9 0.0
27/02:30am 26.9 20.9 14.3 46 7.5 E 39 56 21 30 1010.0 1009.9 0.0
27/02:21am 26.9 21.4 14.6 46 7.4 E 37 56 20 30 1009.9 1009.8 0.0
27/02:00am 27.3 21.8 14.7 46 7.6 E 37 50 20 27 1010.1 1010.0 0.0
27/01:56am 27.1 21.9 14.5 46 7.6 E 35 50 19 27 1010.1 1010.0 0.0
27/01:30am 27.5 25.1 14.5 45 7.8 E 20 32 11 17 1010.5 1010.4 0.0
27/01:26am 27.2 25.2 14.9 47 7.4 E 19 30 10 16 1010.5 1010.4 0.0
27/01:00am 22.0 21.7 14.4 62 4.5 NE 9 20 5 11 1011.0 1010.9 0.0
27/12:30am 21.2 19.8 14.6 66 3.9 SSW 15 17 8 9 1011.3 1011.2 0.0
27/12:00am 21.9 21.2 14.3 62 4.5 SSW 11 15 6 8 1011.6 1011.5 0.0
 
Date/Time
WST
Temp
°C
App
Temp
°C
Dew
Point
°C
Rel
Hum
%
Delta-T
°C
Wind Press
QNH
hPa
Press
MSL
hPa
Rain since
9am
mm
Dir  Spd
km/h
Gust
km/h
Spd
kts
Gust
kts
26/11:30pm 25.0 24.0 14.5 52 6.2 SW 13 17 7 9 1011.8 1011.7 0.0
26/11:00pm 25.9 24.5 14.4 49 6.9 SSW 15 17 8 9 1011.9 1011.8 0.0
26/10:30pm 26.7 24.6 14.8 48 7.2 SSW 19 22 10 12 1012.1 1012.0 0.0
26/10:00pm 26.8 24.6 14.9 48 7.2 S 20 26 11 14 1012.4 1012.3 0.0
26/09:30pm 27.4 24.6 15.4 48 7.3 S 24 28 13 15 1012.5 1012.4 0.0
26/09:00pm 27.9 25.3 15.9 48 7.4 S 24 32 13 17 1012.3 1012.2 0.0
26/08:30pm 28.5 25.1 15.8 46 7.8 S 28 37 15 20 1012.1 1012.0 0.0
26/08:00pm 29.5 26.4 15.6 43 8.6 SSW 26 33 14 18 1012.1 1012.0 0.0
26/07:30pm 30.3 27.4 15.2 40 9.3 SSW 24 28 13 15 1011.8 1011.7 0.0
26/07:00pm 31.0 28.7 15.8 40 9.5 SSW 22 28 12 15 1011.7 1011.6 0.0
26/06:30pm 31.4 29.0 15.4 38 9.9 SSW 22 30 12 16 1011.5 1011.4 0.0
26/06:00pm 31.9 28.6 15.0 36 10.4 SW 26 33 14 18 1011.3 1011.2 0.0
26/05:30pm 31.9 28.6 15.0 36 10.4 SW 26 32 14 17 1011.2 1011.1 0.0
26/05:00pm 33.0 29.3 15.0 33 11.1 SSW 28 37 15 20 1011.2 1011.1 0.0
26/04:30pm 33.1 28.9 15.6 35 10.9 SW 32 39 17 21 1011.3 1011.2 0.0
26/04:00pm 33.5 30.5 15.9 34 11.1 WSW 26 32 14 17 1011.4 1011.3 0.0
26/03:30pm 33.8 32.0 17.9 38 10.3 W 24 32 13 17 1011.4 1011.3 0.0
26/03:00pm 33.9 31.6 18.4 40 10.1 W 28 35 15 19 1011.4 1011.3 0.0
26/02:30pm 35.0 32.7 17.7 36 11.2 W 26 32 14 17 1011.5 1011.4 0.0
26/02:00pm 35.7 33.3 15.4 29 12.8 WSW 22 30 12 16 1011.7 1011.6 0.0
26/01:30pm 34.7 33.1 16.5 33 11.6 W 20 28 11 15 1011.8 1011.7 0.0
26/01:00pm 35.3 33.2 13.5 27 13.3 SW 17 30 9 16 1012.1 1012.0 0.0
26/12:30pm 34.8 33.7 13.0 26 13.2 WSW 11 19 6 10 1012.4 1012.3 0.0
26/12:00pm 33.8 32.5 13.8 30 12.2 SSE 13 19 7 10 1012.7 1012.6 0.0
26/11:30am 32.9 32.5 14.0 32 11.5 SSE 9 17 5 9 1013.2 1013.1 0.0
26/11:00am 32.0 31.6 14.2 34 10.8 S 9 20 5 11 1013.6 1013.5 0.0
26/10:30am 31.2 30.8 15.2 38 9.9 E 11 15 6 8 1013.9 1013.8 0.0
26/10:00am 29.5 28.2 14.9 41 8.9 ESE 15 20 8 11 1014.1 1014.0 0.0
26/09:30am 28.6 27.7 14.8 43 8.4 ESE 13 24 7 13 1014.4 1014.3 0.0
26/09:00am 26.9 25.7 15.0 48 7.2 ESE 15 26 8 14 1014.8 1014.7 0.0
26/08:30am 25.6 23.4 14.4 50 6.7 ESE 19 28 10 15 1014.8 1014.7 0.0
26/08:00am 24.3 21.9 14.4 54 5.9 E 20 30 11 16 1014.9 1014.8 0.0
26/07:30am 23.4 22.3 14.4 57 5.3 ESE 13 20 7 11 1014.8 1014.7 0.0
26/07:00am 22.7 20.8 14.3 59 4.9 ESE 17 26 9 14 1014.6 1014.5 0.0
26/06:30am 21.7 20.5 14.1 62 4.4 ENE 13 20 7 11 1014.5 1014.4 0.0
26/06:00am 21.4 19.9 14.1 63 4.2 E 15 22 8 12 1014.1 1014.0 0.0
26/05:30am 21.7 20.5 13.9 61 4.5 E 13 19 7 10 1014.1 1014.0 0.0
26/05:00am 22.4 22.3 14.0 59 4.9 E 7 17 4 9 1013.9 1013.8 0.0
26/04:30am 22.9 21.7 13.9 57 5.3 ESE 13 19 7 10 1013.5 1013.4 0.0
26/04:00am 23.0 21.1 14.3 58 5.1 ESE 17 26 9 14 1013.4 1013.3 0.0
26/03:30am 23.0 20.7 14.6 59 5.0 ESE 20 30 11 16 1013.2 1013.1 0.0
26/03:00am 22.3 21.6 15.4 65 4.1 S 13 20 7 11 1013.2 1013.1 0.0
26/02:30am 21.3 21.8 16.5 74 2.9 SSW 9 13 5 7 1012.9 1012.8 0.0
26/02:00am 21.3 21.3 17.1 77 2.6 SSW 13 15 7 8 1013.0 1012.9 0.0
26/01:30am 21.5 20.8 17.3 77 2.6 SSW 17 19 9 10 1013.2 1013.1 0.0
26/01:00am 21.6 21.8 17.6 78 2.5 SSW 13 13 7 7 1013.4 1013.3 0.0
26/12:30am 22.0 22.9 17.6 76 2.7 SSW 9 13 5 7 1013.6 1013.5 0.0
26/12:00am 22.4 22.9 17.5 74 3.0 SW 11 13 6 7 1013.8 1013.7 0.0
 
Date/Time
WST
Temp
°C
App
Temp
°C
Dew
Point
°C
Rel
Hum
%
Delta-T
°C
Wind Press
QNH
hPa
Press
MSL
hPa
Rain since
9am
mm
Dir  Spd
km/h
Gust
km/h
Spd
kts
Gust
kts
25/11:30pm 22.7 22.9 17.6 73 3.2 SSW 13 15 7 8 1013.7 1013.6 0.0
25/11:00pm 22.9 23.1 17.6 72 3.3 SW 13 17 7 9 1013.7 1013.6 0.0
25/10:30pm 23.2 23.5 17.9 72 3.3 SSW 13 17 7 9 1013.7 1013.6 0.0

Latest Capital City Observations: Canberra | Sydney | Melbourne | Brisbane | Adelaide | Perth | Hobart | Darwin

Other formats

Comma delimited format used in spreadsheet applications
http://www.bom.gov.au/fwo/IDW60901/IDW60901.94610.axf

JavaScript Object Notation format (JSON) in row-major order
http://www.bom.gov.au/fwo/IDW60901/IDW60901.94610.json

Data quality

Most of these data are generated automatically and are frequently updated. Quality checks on data are not normally performed. It is possible for incorrect values to appear. Refer to information at About Latest Weather Observations and please check the disclaimer before using these data.